createdAt,value
2022-10-10T00:00:16.119Z,416
2022-10-10T00:01:15.677Z,418
2022-10-10T00:02:16.662Z,417
2022-10-10T00:03:16.079Z,414
2022-10-10T00:05:16.463Z,410
2022-10-10T00:07:17.034Z,418
2022-10-10T00:08:16.784Z,415
2022-10-10T00:09:15.281Z,411
2022-10-10T00:10:16.734Z,419
2022-10-10T00:11:16.725Z,424
2022-10-10T00:12:15.727Z,429
2022-10-10T00:13:16.663Z,425
2022-10-10T00:14:15.379Z,431
2022-10-10T00:15:15.872Z,422
2022-10-10T00:16:16.917Z,420
2022-10-10T00:17:16.042Z,421
2022-10-10T00:18:15.833Z,423
2022-10-10T00:19:15.725Z,429
2022-10-10T00:20:17.512Z,420
2022-10-10T00:21:15.698Z,424
2022-10-10T00:22:16.525Z,425
2022-10-10T00:23:16.157Z,407
2022-10-10T00:24:14.878Z,445
2022-10-10T00:25:16.775Z,439
2022-10-10T00:26:21.949Z,428
2022-10-10T00:27:15.585Z,419
2022-10-10T00:28:16.629Z,429
2022-10-10T00:29:15.304Z,424
2022-10-10T00:30:15.749Z,417
2022-10-10T00:31:16.525Z,420
2022-10-10T00:32:16.327Z,423
2022-10-10T00:34:15.587Z,432
2022-10-10T00:35:16.044Z,428
2022-10-10T00:36:15.720Z,419
2022-10-10T00:37:16.227Z,426
2022-10-10T00:38:16.122Z,423
2022-10-10T00:39:16.219Z,426
2022-10-10T00:40:16.318Z,425
2022-10-10T00:41:15.943Z,440
2022-10-10T00:43:16.297Z,428
2022-10-10T00:44:15.418Z,419
2022-10-10T00:45:16.664Z,437
2022-10-10T00:46:16.140Z,418
2022-10-10T00:48:17.128Z,422
2022-10-10T00:49:15.416Z,426
2022-10-10T00:50:15.798Z,429
2022-10-10T00:51:16.741Z,439
2022-10-10T00:52:16.394Z,428
2022-10-10T00:53:15.869Z,422
2022-10-10T00:54:15.585Z,420
2022-10-10T00:55:15.979Z,430
2022-10-10T00:57:16.486Z,426
2022-10-10T00:58:16.298Z,423
2022-10-10T00:59:15.076Z,412
2022-10-10T01:00:16.365Z,422
2022-10-10T01:01:16.379Z,426
2022-10-10T01:02:15.803Z,433
2022-10-10T01:03:16.164Z,434
2022-10-10T01:04:15.119Z,431
2022-10-10T01:05:15.738Z,435
2022-10-10T01:06:16.443Z,434
2022-10-10T01:07:16.228Z,424
2022-10-10T01:08:15.634Z,446
2022-10-10T01:09:15.588Z,462
2022-10-10T01:10:15.977Z,446
2022-10-10T01:11:16.452Z,439
2022-10-10T01:12:16.231Z,430
2022-10-10T01:13:16.034Z,423
2022-10-10T01:15:16.050Z,428
2022-10-10T01:16:15.907Z,432
2022-10-10T01:17:16.228Z,433
2022-10-10T01:18:16.036Z,438
2022-10-10T01:19:15.655Z,429
2022-10-10T01:20:15.845Z,422
2022-10-10T01:21:15.733Z,437
2022-10-10T01:22:16.747Z,429
2022-10-10T01:23:16.167Z,430
2022-10-10T01:24:14.958Z,431
2022-10-10T01:25:16.400Z,439
2022-10-10T01:26:16.106Z,443
2022-10-10T01:27:16.723Z,431
2022-10-10T01:28:16.267Z,423
2022-10-10T01:29:15.092Z,415
2022-10-10T01:30:16.391Z,431
2022-10-10T01:31:16.108Z,426
2022-10-10T01:32:15.397Z,428
2022-10-10T01:34:15.348Z,437
2022-10-10T01:35:16.797Z,434
2022-10-10T01:36:16.379Z,436
2022-10-10T01:37:16.211Z,426
2022-10-10T01:38:15.798Z,420
2022-10-10T01:39:15.572Z,428
2022-10-10T01:40:15.883Z,431
2022-10-10T01:41:16.945Z,422
2022-10-10T01:42:16.101Z,421
2022-10-10T01:43:16.022Z,416
2022-10-10T01:44:16.206Z,431
2022-10-10T01:45:16.198Z,433
2022-10-10T01:46:16.120Z,438
2022-10-10T01:47:16.580Z,434
2022-10-10T01:48:16.328Z,442
2022-10-10T01:49:15.069Z,440
2022-10-10T01:50:16.442Z,432
2022-10-10T01:51:16.232Z,419
2022-10-10T01:52:15.800Z,444
2022-10-10T01:53:16.687Z,429
2022-10-10T01:54:16.484Z,421
2022-10-10T01:55:15.857Z,425
2022-10-10T01:56:16.346Z,434
2022-10-10T01:57:16.237Z,435
2022-10-10T01:58:15.761Z,433
2022-10-10T01:59:15.604Z,429
2022-10-10T02:00:16.046Z,423
2022-10-10T02:01:15.856Z,418
2022-10-10T02:02:16.408Z,423
2022-10-10T02:03:16.089Z,417
2022-10-10T02:04:15.406Z,411
2022-10-10T02:05:16.025Z,418
2022-10-10T02:07:16.405Z,416
2022-10-10T02:08:16.328Z,418
2022-10-10T02:09:14.920Z,421
2022-10-10T02:10:16.436Z,418
2022-10-10T02:11:16.044Z,414
2022-10-10T02:12:15.886Z,406
2022-10-10T02:13:16.464Z,394
2022-10-10T02:14:15.320Z,412
2022-10-10T02:15:15.457Z,389
2022-10-10T02:16:16.310Z,391
2022-10-10T02:17:16.101Z,386
2022-10-10T02:18:16.955Z,384
2022-10-10T02:19:15.257Z,398
2022-10-10T02:21:16.720Z,401
2022-10-10T02:23:16.694Z,393
2022-10-10T02:24:15.594Z,397
2022-10-10T02:25:16.017Z,391
2022-10-10T02:26:16.802Z,405
2022-10-10T02:27:16.664Z,410
2022-10-10T02:28:16.291Z,409
2022-10-10T02:29:15.835Z,414
2022-10-10T02:30:16.194Z,407
2022-10-10T02:31:15.910Z,401
2022-10-10T02:32:16.582Z,415
2022-10-10T02:33:16.484Z,404
2022-10-10T02:34:15.052Z,397
2022-10-10T02:35:16.522Z,414
2022-10-10T02:36:16.261Z,383
2022-10-10T02:37:16.202Z,393
2022-10-10T02:38:16.611Z,416
2022-10-10T02:39:15.313Z,410
2022-10-10T02:40:15.788Z,411
2022-10-10T02:41:16.619Z,410
2022-10-10T02:42:15.950Z,398
2022-10-10T02:43:15.858Z,391
2022-10-10T02:44:15.722Z,397
2022-10-10T02:45:16.086Z,395
2022-10-10T02:46:15.793Z,401
2022-10-10T02:47:16.652Z,406
2022-10-10T02:48:16.196Z,410
2022-10-10T02:49:14.910Z,407
2022-10-10T02:50:16.419Z,409
2022-10-10T02:51:16.199Z,407
2022-10-10T02:52:15.761Z,400
2022-10-10T02:55:16.023Z,411
2022-10-10T02:56:16.552Z,393
2022-10-10T02:57:16.336Z,392
2022-10-10T02:58:15.524Z,420
2022-10-10T02:59:15.554Z,394
2022-10-10T03:00:16.040Z,400
2022-10-10T03:01:16.696Z,392
2022-10-10T03:02:16.470Z,400
2022-10-10T03:03:15.957Z,399
2022-10-10T03:04:15.877Z,394
2022-10-10T03:05:16.288Z,403
2022-10-10T03:06:15.743Z,400
2022-10-10T03:07:16.358Z,393
2022-10-10T03:08:16.652Z,392
2022-10-10T03:09:15.080Z,378
2022-10-10T03:10:16.215Z,387
2022-10-10T03:11:16.111Z,383
2022-10-10T03:12:15.959Z,378
2022-10-10T03:13:16.562Z,375
2022-10-10T03:14:15.131Z,379
2022-10-10T03:15:16.753Z,380
2022-10-10T03:16:16.238Z,368
2022-10-10T03:17:16.296Z,371
2022-10-10T03:19:15.682Z,366
2022-10-10T03:20:15.710Z,353
2022-10-10T03:21:15.827Z,356
2022-10-10T03:22:16.327Z,359
2022-10-10T03:23:15.893Z,353
2022-10-10T03:24:14.746Z,365
2022-10-10T03:25:16.333Z,369
2022-10-10T03:26:15.965Z,365
2022-10-10T03:27:16.759Z,360
2022-10-10T03:28:16.704Z,371
2022-10-10T03:29:15.184Z,366
2022-10-10T03:30:16.613Z,367
2022-10-10T03:31:16.494Z,370
2022-10-10T03:32:16.161Z,371
2022-10-10T03:33:15.813Z,369
2022-10-10T03:34:15.106Z,371
2022-10-10T03:35:16.105Z,361
2022-10-10T03:36:16.497Z,363
2022-10-10T03:37:16.352Z,372
2022-10-10T03:38:15.783Z,373
2022-10-10T03:39:15.580Z,369
2022-10-10T03:40:15.987Z,350
2022-10-10T03:41:16.947Z,387
2022-10-10T03:42:16.362Z,379
2022-10-10T03:43:15.984Z,376
2022-10-10T03:44:15.615Z,370
2022-10-10T03:45:16.317Z,373
2022-10-10T03:46:20.746Z,379
2022-10-10T03:47:16.678Z,375
2022-10-10T03:48:16.422Z,370
2022-10-10T03:49:15.092Z,374
2022-10-10T03:50:16.556Z,363
2022-10-10T03:51:16.239Z,367
2022-10-10T03:52:15.625Z,369
2022-10-10T03:53:16.444Z,371
2022-10-10T03:54:15.424Z,376
2022-10-10T03:55:15.890Z,370
2022-10-10T03:56:16.514Z,359
2022-10-10T03:57:15.995Z,357
2022-10-10T03:58:18.062Z,358
2022-10-10T03:59:15.384Z,357
2022-10-10T04:00:15.785Z,361
2022-10-10T04:02:16.275Z,358
2022-10-10T04:03:16.480Z,346
2022-10-10T04:04:15.419Z,357
2022-10-10T04:05:16.054Z,362
2022-10-10T04:06:15.673Z,358
2022-10-10T04:07:16.592Z,361
2022-10-10T04:08:16.430Z,365
2022-10-10T04:09:14.876Z,367
2022-10-10T04:10:15.883Z,371
2022-10-10T04:11:15.774Z,366
2022-10-10T04:12:16.371Z,370
2022-10-10T04:14:15.012Z,372
2022-10-10T04:15:16.301Z,368
2022-10-10T04:16:16.367Z,369
2022-10-10T04:17:15.580Z,363
2022-10-10T04:18:16.536Z,368
2022-10-10T04:19:15.413Z,362
2022-10-10T04:20:15.819Z,376
2022-10-10T04:21:16.197Z,374
2022-10-10T04:22:16.469Z,361
2022-10-10T04:23:15.653Z,368
2022-10-10T04:24:15.357Z,373
2022-10-10T04:25:15.753Z,363
2022-10-10T04:26:15.588Z,370
2022-10-10T04:27:16.456Z,368
2022-10-10T04:29:15.863Z,372
2022-10-10T04:30:16.243Z,375
2022-10-10T04:31:15.601Z,371
2022-10-10T04:32:16.548Z,360
2022-10-10T04:33:16.442Z,368
2022-10-10T04:34:15.169Z,372
2022-10-10T04:35:16.646Z,381
2022-10-10T04:36:16.686Z,372
2022-10-10T04:37:15.974Z,374
2022-10-10T04:38:16.640Z,382
2022-10-10T04:39:15.329Z,386
2022-10-10T04:40:15.629Z,374
2022-10-10T04:41:16.597Z,368
2022-10-10T04:43:15.780Z,372
2022-10-10T04:44:15.675Z,374
2022-10-10T04:45:16.144Z,364
2022-10-10T04:46:15.836Z,372
2022-10-10T04:47:16.528Z,371
2022-10-10T04:48:16.114Z,376
2022-10-10T04:49:14.949Z,378
2022-10-10T04:50:16.176Z,376
2022-10-10T04:51:16.195Z,365
2022-10-10T04:52:15.743Z,369
2022-10-10T04:53:16.606Z,376
2022-10-10T04:54:15.164Z,374
2022-10-10T04:56:16.124Z,376
2022-10-10T04:58:15.494Z,375
2022-10-10T04:59:15.516Z,371
2022-10-10T05:00:15.989Z,367
2022-10-10T05:01:16.529Z,368
2022-10-10T05:02:16.822Z,365
2022-10-10T05:04:15.896Z,364
2022-10-10T05:05:16.260Z,366
2022-10-10T05:06:15.667Z,355
2022-10-10T05:07:16.097Z,360
2022-10-10T05:08:15.941Z,373
2022-10-10T05:09:15.830Z,372
2022-10-10T05:10:15.497Z,373
2022-10-10T05:11:15.804Z,366
2022-10-10T05:12:16.427Z,370
2022-10-10T05:13:16.247Z,371
2022-10-10T05:14:14.638Z,367
2022-10-10T05:15:16.356Z,363
2022-10-10T05:16:15.699Z,368
2022-10-10T05:17:15.673Z,373
2022-10-10T05:18:16.015Z,366
2022-10-10T05:19:15.488Z,370
2022-10-10T05:20:15.779Z,375
2022-10-10T05:21:16.744Z,369
2022-10-10T05:22:15.541Z,370
2022-10-10T05:23:15.835Z,376
2022-10-10T05:24:15.582Z,372
2022-10-10T05:25:16.502Z,367
2022-10-10T05:26:15.717Z,407
2022-10-10T05:27:16.378Z,388
2022-10-10T05:28:15.442Z,383
2022-10-10T05:29:14.830Z,375
2022-10-10T05:30:15.878Z,369
2022-10-10T05:31:16.126Z,367
2022-10-10T05:32:14.843Z,373
2022-10-10T05:33:16.612Z,369
2022-10-10T05:34:14.725Z,371
2022-10-10T05:35:16.349Z,370
2022-10-10T05:36:15.704Z,378
2022-10-10T05:37:15.911Z,386
2022-10-10T05:38:15.980Z,388
2022-10-10T05:39:15.553Z,377
2022-10-10T05:40:15.992Z,365
2022-10-10T05:41:16.671Z,361
2022-10-10T05:42:16.406Z,368
2022-10-10T05:43:16.068Z,367
2022-10-10T05:44:15.472Z,365
2022-10-10T05:45:16.215Z,362
2022-10-10T05:46:15.304Z,359
2022-10-10T05:47:16.619Z,377
2022-10-10T05:48:16.353Z,375
2022-10-10T05:49:15.021Z,373
2022-10-10T05:50:16.020Z,362
2022-10-10T05:51:16.147Z,358
2022-10-10T05:52:15.718Z,365
2022-10-10T05:53:16.553Z,363
2022-10-10T05:54:15.187Z,366
2022-10-10T05:55:15.806Z,360
2022-10-10T05:56:15.831Z,373
2022-10-10T05:57:20.920Z,376
2022-10-10T05:58:15.814Z,371
2022-10-10T05:59:15.555Z,378
2022-10-10T06:00:16.030Z,368
2022-10-10T06:01:15.768Z,362
2022-10-10T06:02:16.335Z,370
2022-10-10T06:03:16.284Z,367
2022-10-10T06:04:15.028Z,368
2022-10-10T06:05:16.264Z,376
2022-10-10T06:06:16.552Z,371
2022-10-10T06:07:15.497Z,353
2022-10-10T06:08:17.191Z,391
2022-10-10T06:09:15.172Z,381
2022-10-10T06:10:16.540Z,370
2022-10-10T06:11:21.164Z,362
2022-10-10T06:12:15.626Z,363
2022-10-10T06:13:20.310Z,358
2022-10-10T06:14:15.052Z,364
2022-10-10T06:15:16.826Z,365
2022-10-10T06:16:16.418Z,362
2022-10-10T06:17:15.964Z,366
2022-10-10T06:18:16.720Z,364
2022-10-10T06:19:18.749Z,368
2022-10-10T06:20:16.039Z,364
2022-10-10T06:21:15.528Z,355
2022-10-10T06:22:16.340Z,357
2022-10-10T06:23:16.164Z,349
2022-10-10T06:24:15.237Z,355
2022-10-10T06:25:40.828Z,366
2022-10-10T06:26:17.099Z,370
2022-10-10T06:27:16.389Z,368
2022-10-10T06:28:15.992Z,374
2022-10-10T06:29:15.502Z,349
2022-10-10T06:30:15.763Z,362
2022-10-10T06:31:16.958Z,356
2022-10-10T06:33:15.827Z,367
2022-10-10T06:34:16.751Z,370
2022-10-10T06:36:15.921Z,368
2022-10-10T06:37:16.593Z,371
2022-10-10T06:38:16.142Z,369
2022-10-10T06:39:16.323Z,357
2022-10-10T06:40:16.364Z,367
2022-10-10T06:41:16.140Z,364
2022-10-10T06:42:15.696Z,367
2022-10-10T06:43:16.124Z,371
2022-10-10T06:44:14.709Z,368
2022-10-10T06:45:16.350Z,366
2022-10-10T06:46:16.080Z,365
2022-10-10T06:47:16.726Z,375
2022-10-10T06:48:16.413Z,384
2022-10-10T06:49:16.174Z,354
2022-10-10T06:50:16.566Z,362
2022-10-10T06:51:16.203Z,366
2022-10-10T06:52:15.665Z,363
2022-10-10T06:53:16.126Z,370
2022-10-10T06:54:16.194Z,373
2022-10-10T06:55:16.423Z,367
2022-10-10T06:56:16.050Z,366
2022-10-10T06:57:15.911Z,372
2022-10-10T06:58:16.678Z,371
2022-10-10T06:59:15.280Z,375
2022-10-10T07:00:15.818Z,371
2022-10-10T07:01:16.358Z,370
2022-10-10T07:02:15.779Z,368
2022-10-10T07:03:16.795Z,372
2022-10-10T07:04:15.693Z,369
2022-10-10T07:05:16.098Z,371
2022-10-10T07:06:16.016Z,369
2022-10-10T07:07:16.585Z,368
2022-10-10T07:08:15.757Z,366
2022-10-10T07:09:15.844Z,359
2022-10-10T07:10:16.761Z,357
2022-10-10T07:11:16.190Z,369
2022-10-10T07:12:16.295Z,364
2022-10-10T07:14:14.610Z,373
2022-10-10T07:15:16.487Z,366
2022-10-10T07:16:16.298Z,360
2022-10-10T07:17:15.739Z,367
2022-10-10T07:18:16.716Z,373
2022-10-10T07:19:15.418Z,381
2022-10-10T07:20:15.794Z,376
2022-10-10T07:21:16.643Z,371
2022-10-10T07:22:16.219Z,362
2022-10-10T07:23:15.811Z,367
2022-10-10T07:24:15.425Z,365
2022-10-10T07:25:15.983Z,358
2022-10-10T07:26:15.677Z,365
2022-10-10T07:27:16.418Z,368
2022-10-10T07:28:16.153Z,380
2022-10-10T07:29:14.912Z,344
2022-10-10T07:30:16.175Z,360
2022-10-10T07:31:16.093Z,357
2022-10-10T07:33:16.404Z,365
2022-10-10T07:34:14.859Z,369
2022-10-10T07:35:17.111Z,375
2022-10-10T07:36:16.334Z,381
2022-10-10T07:37:16.394Z,369
2022-10-10T07:38:16.827Z,364
2022-10-10T07:39:20.571Z,370
2022-10-10T07:40:15.640Z,375
2022-10-10T07:41:16.769Z,376
2022-10-10T07:42:16.381Z,373
2022-10-10T07:43:15.979Z,368
2022-10-10T07:44:15.773Z,366
2022-10-10T07:45:16.233Z,361
2022-10-10T07:46:17.179Z,363
2022-10-10T07:47:17.127Z,362
2022-10-10T07:48:16.508Z,365
2022-10-10T07:50:16.608Z,359
2022-10-10T07:52:15.844Z,358
2022-10-10T07:53:16.555Z,359
2022-10-10T07:54:14.955Z,366
2022-10-10T07:55:15.882Z,367
2022-10-10T07:56:16.251Z,366
2022-10-10T07:57:15.961Z,356
2022-10-10T07:58:16.372Z,351
2022-10-10T07:59:15.380Z,358
2022-10-10T08:00:15.629Z,356
2022-10-10T08:01:16.512Z,355
2022-10-10T08:02:16.359Z,347
2022-10-10T08:03:17.185Z,346
2022-10-10T08:04:15.546Z,354
2022-10-10T08:05:15.838Z,352
2022-10-10T08:06:15.555Z,348
2022-10-10T08:07:16.187Z,324
2022-10-10T08:08:16.379Z,336
2022-10-10T08:09:14.638Z,353
2022-10-10T08:10:16.230Z,356
2022-10-10T08:11:15.894Z,355
2022-10-10T08:12:16.382Z,361
2022-10-10T08:13:16.123Z,353
2022-10-10T08:14:14.971Z,346
2022-10-10T08:15:16.411Z,343
2022-10-10T08:16:16.101Z,346
2022-10-10T08:17:15.682Z,355
2022-10-10T08:18:16.828Z,362
2022-10-10T08:19:15.209Z,354
2022-10-10T08:20:14.863Z,356
2022-10-10T08:21:16.511Z,348
2022-10-10T08:22:16.130Z,349
2022-10-10T08:23:16.355Z,360
2022-10-10T08:24:15.489Z,357
2022-10-10T08:25:16.380Z,373
2022-10-10T08:26:15.211Z,377
2022-10-10T08:27:16.161Z,367
2022-10-10T08:28:15.980Z,366
2022-10-10T08:29:15.601Z,367
2022-10-10T08:30:16.214Z,371
2022-10-10T08:31:16.753Z,369
2022-10-10T08:32:16.380Z,370
2022-10-10T08:33:16.173Z,360
2022-10-10T08:34:15.748Z,363
2022-10-10T08:35:16.279Z,357
2022-10-10T08:36:16.078Z,355
2022-10-10T08:37:16.594Z,358
2022-10-10T08:38:16.150Z,361
2022-10-10T08:39:14.949Z,364
2022-10-10T08:41:16.572Z,352
2022-10-10T08:42:16.049Z,371
2022-10-10T08:43:16.498Z,385
2022-10-10T08:44:15.055Z,367
2022-10-10T08:45:15.898Z,351
2022-10-10T08:46:15.891Z,346
2022-10-10T08:47:16.356Z,355
2022-10-10T08:48:16.811Z,349
2022-10-10T08:49:17.821Z,342
2022-10-10T08:50:15.470Z,360
2022-10-10T08:51:16.428Z,354
2022-10-10T08:52:15.784Z,343
2022-10-10T08:53:16.027Z,353
2022-10-10T08:54:15.291Z,360
2022-10-10T08:55:16.054Z,349
2022-10-10T08:56:15.943Z,347
2022-10-10T08:57:16.308Z,360
2022-10-10T08:58:15.533Z,359
2022-10-10T08:59:15.630Z,354
2022-10-10T09:00:16.662Z,356
2022-10-10T09:01:16.158Z,354
2022-10-10T09:02:26.334Z,358
2022-10-10T09:03:16.190Z,355
2022-10-10T09:04:15.873Z,350
2022-10-10T09:05:16.471Z,344
2022-10-10T09:06:16.127Z,341
2022-10-10T09:08:16.626Z,347
2022-10-10T09:09:15.416Z,344
2022-10-10T09:11:16.480Z,342
2022-10-10T09:12:16.291Z,343
2022-10-10T09:13:15.817Z,340
2022-10-10T09:14:15.460Z,346
2022-10-10T09:15:16.247Z,350
2022-10-10T09:16:15.015Z,348
2022-10-10T09:18:17.037Z,334
2022-10-10T09:19:19.788Z,340
2022-10-10T09:20:16.629Z,334
2022-10-10T09:21:15.976Z,332
2022-10-10T09:22:15.493Z,344
2022-10-10T09:23:16.335Z,339
2022-10-10T09:24:16.136Z,347
2022-10-10T09:25:16.660Z,334
2022-10-10T09:26:16.512Z,350
2022-10-10T09:27:20.997Z,348
2022-10-10T09:28:16.627Z,346
2022-10-10T09:29:15.360Z,345
2022-10-10T09:30:15.743Z,346
2022-10-10T09:32:16.641Z,345
2022-10-10T09:33:15.922Z,334
2022-10-10T09:34:15.707Z,345
2022-10-10T09:35:16.249Z,344
2022-10-10T09:36:15.806Z,337
2022-10-10T09:37:45.380Z,339
2022-10-10T09:38:16.241Z,341
2022-10-10T09:39:14.841Z,343
2022-10-10T09:40:15.513Z,337
2022-10-10T09:41:16.417Z,343
2022-10-10T09:42:16.420Z,342
2022-10-10T09:43:15.967Z,338
2022-10-10T09:44:15.778Z,339
2022-10-10T09:45:16.096Z,338
2022-10-10T09:46:15.949Z,349
2022-10-10T09:47:16.353Z,344
2022-10-10T09:48:15.748Z,348
2022-10-10T09:49:15.750Z,340
2022-10-10T09:50:16.350Z,343
2022-10-10T09:51:16.832Z,346
2022-10-10T09:52:16.161Z,329
2022-10-10T09:53:16.156Z,338
2022-10-10T09:54:14.721Z,343
2022-10-10T09:55:16.263Z,335
2022-10-10T09:56:15.888Z,339
2022-10-10T09:57:16.487Z,331
2022-10-10T09:58:16.413Z,328
2022-10-10T09:59:15.159Z,337
2022-10-10T10:00:16.484Z,338
2022-10-10T10:01:16.209Z,330
2022-10-10T10:02:15.985Z,329
2022-10-10T10:03:16.107Z,335
2022-10-10T10:04:30.199Z,347
2022-10-10T10:07:15.832Z,342
2022-10-10T10:08:16.509Z,334
2022-10-10T10:09:15.190Z,310
2022-10-10T10:10:16.454Z,327
2022-10-10T10:11:16.585Z,331
2022-10-10T10:12:16.095Z,329
2022-10-10T10:13:16.842Z,334
2022-10-10T10:14:15.410Z,337
2022-10-10T10:15:15.794Z,331
2022-10-10T10:16:16.364Z,341
2022-10-10T10:17:16.179Z,330
2022-10-10T10:18:15.759Z,340
2022-10-10T10:19:15.718Z,348
2022-10-10T10:20:15.788Z,350
2022-10-10T10:21:16.215Z,336
2022-10-10T10:22:26.286Z,332
2022-10-10T10:23:15.981Z,334
2022-10-10T10:24:14.890Z,340
2022-10-10T10:25:16.429Z,362
2022-10-10T10:26:16.322Z,345
2022-10-10T10:27:15.822Z,342
2022-10-10T10:28:23.786Z,339
2022-10-10T10:29:15.544Z,335
2022-10-10T10:30:15.975Z,330
2022-10-10T10:31:16.641Z,333
2022-10-10T10:32:16.303Z,341
2022-10-10T10:33:15.972Z,345
2022-10-10T10:34:15.468Z,344
2022-10-10T10:35:15.871Z,343
2022-10-10T10:36:15.717Z,334
2022-10-10T10:37:19.826Z,344
2022-10-10T10:38:16.485Z,353
2022-10-10T10:39:15.965Z,343
2022-10-10T10:40:16.362Z,362
2022-10-10T10:41:16.056Z,332
2022-10-10T10:42:16.669Z,326
2022-10-10T10:43:16.472Z,327
2022-10-10T10:44:15.488Z,333
2022-10-10T10:45:16.669Z,335
2022-10-10T10:46:16.303Z,332
2022-10-10T10:47:16.319Z,334
2022-10-10T10:48:16.517Z,341
2022-10-10T10:49:15.472Z,343
2022-10-10T10:50:15.736Z,338
2022-10-10T10:51:16.615Z,335
2022-10-10T10:52:16.411Z,332
2022-10-10T10:53:16.062Z,330
2022-10-10T10:54:15.414Z,341
2022-10-10T10:55:16.353Z,337
2022-10-10T10:56:15.752Z,333
2022-10-10T10:57:45.825Z,339
2022-10-10T10:59:31.845Z,348
2022-10-10T11:01:22.435Z,342
2022-10-10T11:02:00.743Z,338
2022-10-10T11:02:12.125Z,339
2022-10-10T11:02:57.473Z,340
2022-10-10T11:05:21.993Z,346
2022-10-10T11:05:44.337Z,355
2022-10-10T11:05:51.268Z,349
2022-10-10T11:06:16.216Z,353
2022-10-10T11:07:24.239Z,351
2022-10-10T11:08:16.748Z,345
2022-10-10T11:09:50.197Z,341
2022-10-10T11:10:15.752Z,343
2022-10-10T11:11:16.349Z,341
2022-10-10T11:12:15.961Z,356
2022-10-10T11:13:16.624Z,333
2022-10-10T11:14:15.418Z,340
2022-10-10T11:15:15.688Z,345
2022-10-10T11:16:48.574Z,336
2022-10-10T11:17:16.162Z,339
2022-10-10T11:18:15.658Z,348
2022-10-10T11:19:16.522Z,350
2022-10-10T11:20:15.947Z,351
2022-10-10T11:21:15.945Z,346
2022-10-10T11:22:16.645Z,347
2022-10-10T11:23:15.879Z,354
2022-10-10T11:24:16.027Z,344
2022-10-10T11:25:16.589Z,339
2022-10-10T11:26:16.040Z,341
2022-10-10T11:27:15.820Z,334
2022-10-10T11:28:16.714Z,359
2022-10-10T11:29:15.145Z,361
2022-10-10T11:30:16.682Z,358
2022-10-10T11:31:16.477Z,346
2022-10-10T11:32:15.942Z,343
2022-10-10T11:33:16.565Z,352
2022-10-10T11:34:15.115Z,355
2022-10-10T11:35:15.687Z,353
2022-10-10T11:36:16.498Z,356
2022-10-10T11:38:15.877Z,355
2022-10-10T11:39:19.503Z,349
2022-10-10T11:40:16.206Z,352
2022-10-10T11:41:16.037Z,347
2022-10-10T11:42:16.194Z,359
2022-10-10T11:43:16.395Z,312
2022-10-10T11:44:15.913Z,329
2022-10-10T11:45:16.668Z,340
2022-10-10T11:46:16.205Z,353
2022-10-10T11:47:15.881Z,351
2022-10-10T11:48:16.452Z,338
2022-10-10T11:49:15.933Z,336
2022-10-10T11:50:15.479Z,340
2022-10-10T11:51:20.968Z,341
2022-10-10T11:52:37.013Z,340
2022-10-10T11:53:16.335Z,347
2022-10-10T11:54:15.788Z,342
2022-10-10T11:55:16.641Z,335
2022-10-10T11:56:16.510Z,329
2022-10-10T11:57:17.742Z,324
2022-10-10T11:58:16.720Z,364
2022-10-10T11:59:15.453Z,356
2022-10-10T12:00:21.268Z,345
2022-10-10T12:01:16.741Z,343
2022-10-10T12:02:15.578Z,342
2022-10-10T12:03:15.453Z,350
2022-10-10T12:04:15.719Z,335
2022-10-10T12:05:15.861Z,346
2022-10-10T12:06:15.827Z,350
2022-10-10T12:07:16.275Z,348
2022-10-10T12:08:21.507Z,335
2022-10-10T12:09:15.748Z,339
2022-10-10T12:10:15.953Z,342
2022-10-10T12:11:16.730Z,343
2022-10-10T12:12:15.742Z,353
2022-10-10T12:13:15.964Z,362
2022-10-10T12:14:15.855Z,346
2022-10-10T12:15:21.414Z,335
2022-10-10T12:16:16.176Z,332
2022-10-10T12:17:16.368Z,339
2022-10-10T12:18:15.985Z,346
2022-10-10T12:19:14.982Z,355
2022-10-10T12:20:16.268Z,353
2022-10-10T12:21:15.921Z,340
2022-10-10T12:22:21.122Z,330
2022-10-10T12:23:16.728Z,335
2022-10-10T12:24:16.186Z,334
2022-10-10T12:25:15.724Z,336
2022-10-10T12:26:16.397Z,349
2022-10-10T12:27:16.066Z,348
2022-10-10T12:28:15.934Z,340
2022-10-10T12:29:15.468Z,347
2022-10-10T12:30:16.611Z,344
2022-10-10T12:31:15.639Z,346
2022-10-10T12:32:15.825Z,350
2022-10-10T12:33:15.752Z,343
2022-10-10T12:34:16.394Z,342
2022-10-10T12:35:16.220Z,348
2022-10-10T12:36:15.849Z,351
2022-10-10T12:37:16.304Z,353
2022-10-10T12:38:15.937Z,354
2022-10-10T12:39:16.058Z,352
2022-10-10T12:40:15.983Z,339
2022-10-10T12:41:15.903Z,341
2022-10-10T12:42:16.598Z,345
2022-10-10T12:43:16.141Z,335
2022-10-10T12:44:15.599Z,341
2022-10-10T12:45:16.280Z,346
2022-10-10T12:46:15.912Z,351
2022-10-10T12:47:16.150Z,346
2022-10-10T12:48:16.244Z,344
2022-10-10T12:49:15.262Z,356
2022-10-10T12:50:16.878Z,357
2022-10-10T12:51:16.463Z,349
2022-10-10T12:52:15.716Z,347
2022-10-10T12:53:16.780Z,336
2022-10-10T12:54:15.221Z,339
2022-10-10T12:55:16.776Z,347
2022-10-10T12:56:16.297Z,340
2022-10-10T12:57:16.187Z,328
2022-10-10T12:58:29.847Z,367
2022-10-10T12:59:16.530Z,358
2022-10-10T13:00:15.304Z,347
2022-10-10T13:01:16.554Z,345
2022-10-10T13:02:16.260Z,339
2022-10-10T13:03:16.139Z,343
2022-10-10T13:04:16.540Z,346
2022-10-10T13:05:16.123Z,344
2022-10-10T13:06:16.067Z,351
2022-10-10T13:07:16.905Z,349
2022-10-10T13:08:16.248Z,341
2022-10-10T13:10:16.473Z,344
2022-10-10T13:11:16.041Z,343
2022-10-10T13:12:15.792Z,353
2022-10-10T13:13:16.625Z,346
2022-10-10T13:14:15.074Z,345
2022-10-10T13:15:15.887Z,339
2022-10-10T13:16:16.132Z,346
2022-10-10T13:17:16.099Z,354
2022-10-10T13:18:15.768Z,343
2022-10-10T13:20:15.593Z,354
2022-10-10T13:21:15.879Z,357
2022-10-10T13:22:16.355Z,356
2022-10-10T13:23:16.316Z,333
2022-10-10T13:24:15.798Z,338
2022-10-10T13:25:16.301Z,339
2022-10-10T13:26:16.036Z,337
2022-10-10T13:27:16.803Z,342
2022-10-10T13:28:16.581Z,330
2022-10-10T13:29:16.045Z,335
2022-10-10T13:30:16.145Z,340
2022-10-10T13:31:16.752Z,342
2022-10-10T13:32:16.155Z,352
2022-10-10T13:33:16.598Z,347
2022-10-10T13:34:16.620Z,340
2022-10-10T13:35:16.161Z,337
2022-10-10T13:36:16.819Z,344
2022-10-10T13:37:16.115Z,348
2022-10-10T13:38:15.837Z,345
2022-10-10T13:39:15.882Z,349
2022-10-10T13:40:16.159Z,356
2022-10-10T13:41:15.868Z,358
2022-10-10T13:42:16.685Z,355
2022-10-10T13:44:15.036Z,351
2022-10-10T13:45:16.449Z,354
2022-10-10T13:46:15.929Z,349
2022-10-10T13:47:16.147Z,348
2022-10-10T13:48:16.412Z,335
2022-10-10T13:49:16.383Z,329
2022-10-10T13:50:15.726Z,338
2022-10-10T13:51:16.471Z,335
2022-10-10T13:52:15.684Z,336
2022-10-10T13:53:15.815Z,348
2022-10-10T13:54:15.252Z,350
2022-10-10T13:55:15.865Z,342
2022-10-10T13:56:15.625Z,331
2022-10-10T13:57:16.516Z,317
2022-10-10T13:58:15.525Z,369
2022-10-10T13:59:14.910Z,354
2022-10-10T14:00:15.544Z,344
2022-10-10T14:01:16.145Z,348
2022-10-10T14:02:16.066Z,345
2022-10-10T14:03:16.234Z,341
2022-10-10T14:04:14.615Z,340
2022-10-10T14:05:16.118Z,341
2022-10-10T14:06:15.747Z,336
2022-10-10T14:07:16.259Z,344
2022-10-10T14:08:16.027Z,342
2022-10-10T14:09:15.031Z,340
2022-10-10T14:10:16.501Z,345
2022-10-10T14:11:16.121Z,344
2022-10-10T14:12:15.816Z,334
2022-10-10T14:13:16.382Z,337
2022-10-10T14:14:15.180Z,344
2022-10-10T14:15:15.924Z,345
2022-10-10T14:16:16.555Z,343
2022-10-10T14:17:15.969Z,336
2022-10-10T14:18:16.535Z,335
2022-10-10T14:19:16.066Z,330
2022-10-10T14:20:16.013Z,334
2022-10-10T14:21:16.944Z,343
2022-10-10T14:23:16.247Z,344
2022-10-10T14:24:16.183Z,331
2022-10-10T14:25:16.123Z,339